sensor_id;sensor_type;location;lat;lon;timestamp;P1;durP1;ratioP1;P2;durP2;ratioP2
29500;SDS011;16450;50.288;10.966;2022-12-18T00:02:16;30.27;;;13.60;;
29500;SDS011;16450;50.288;10.966;2022-12-18T00:05:16;33.13;;;15.50;;
29500;SDS011;16450;50.288;10.966;2022-12-18T00:08:17;27.97;;;15.20;;
29500;SDS011;16450;50.288;10.966;2022-12-18T00:11:19;28.63;;;13.30;;
29500;SDS011;16450;50.288;10.966;2022-12-18T00:14:21;28.53;;;14.97;;
29500;SDS011;16450;50.288;10.966;2022-12-18T00:17:22;30.27;;;14.37;;
29500;SDS011;16450;50.288;10.966;2022-12-18T00:20:23;26.80;;;14.10;;
29500;SDS011;16450;50.288;10.966;2022-12-18T00:23:25;27.03;;;13.60;;
29500;SDS011;16450;50.288;10.966;2022-12-18T00:26:28;31.00;;;13.70;;
29500;SDS011;16450;50.288;10.966;2022-12-18T00:29:30;30.57;;;14.60;;
29500;SDS011;16450;50.288;10.966;2022-12-18T00:32:30;29.50;;;13.47;;
29500;SDS011;16450;50.288;10.966;2022-12-18T00:35:32;26.70;;;12.73;;
29500;SDS011;16450;50.288;10.966;2022-12-18T00:38:33;25.93;;;13.30;;
29500;SDS011;16450;50.288;10.966;2022-12-18T00:41:34;26.80;;;12.53;;
29500;SDS011;16450;50.288;10.966;2022-12-18T00:44:53;24.83;;;11.43;;
29500;SDS011;16450;50.288;10.966;2022-12-18T00:47:54;23.77;;;12.00;;
29500;SDS011;16450;50.288;10.966;2022-12-18T00:50:55;24.00;;;11.10;;
29500;SDS011;16450;50.288;10.966;2022-12-18T00:53:56;22.30;;;11.23;;
29500;SDS011;16450;50.288;10.966;2022-12-18T00:56:56;22.20;;;11.27;;
29500;SDS011;16450;50.288;10.966;2022-12-18T00:59:57;21.23;;;11.63;;
29500;SDS011;16450;50.288;10.966;2022-12-18T01:02:57;23.53;;;10.30;;
29500;SDS011;16450;50.288;10.966;2022-12-18T01:05:58;26.80;;;12.43;;
29500;SDS011;16450;50.288;10.966;2022-12-18T01:08:59;25.93;;;11.67;;
29500;SDS011;16450;50.288;10.966;2022-12-18T01:11:59;26.73;;;11.97;;
29500;SDS011;16450;50.288;10.966;2022-12-18T01:15:00;21.23;;;11.93;;
29500;SDS011;16450;50.288;10.966;2022-12-18T01:18:01;26.40;;;12.83;;
29500;SDS011;16450;50.288;10.966;2022-12-18T01:21:06;35.57;;;15.53;;
29500;SDS011;16450;50.288;10.966;2022-12-18T01:24:12;40.43;;;17.37;;
29500;SDS011;16450;50.288;10.966;2022-12-18T01:27:13;34.73;;;14.73;;
29500;SDS011;16450;50.288;10.966;2022-12-18T01:30:14;30.17;;;14.53;;
29500;SDS011;16450;50.288;10.966;2022-12-18T01:33:14;29.30;;;13.27;;
29500;SDS011;16450;50.288;10.966;2022-12-18T01:36:16;29.30;;;14.13;;
29500;SDS011;16450;50.288;10.966;2022-12-18T01:39:31;27.47;;;13.43;;
29500;SDS011;16450;50.288;10.966;2022-12-18T01:42:32;27.93;;;13.30;;
29500;SDS011;16450;50.288;10.966;2022-12-18T01:45:33;31.03;;;14.13;;
29500;SDS011;16450;50.288;10.966;2022-12-18T01:48:33;28.23;;;13.13;;
29500;SDS011;16450;50.288;10.966;2022-12-18T01:51:34;26.30;;;13.30;;
29500;SDS011;16450;50.288;10.966;2022-12-18T01:54:35;26.87;;;12.50;;
29500;SDS011;16450;50.288;10.966;2022-12-18T01:57:36;27.13;;;12.00;;
29500;SDS011;16450;50.288;10.966;2022-12-18T02:00:37;26.20;;;12.40;;
29500;SDS011;16450;50.288;10.966;2022-12-18T02:03:40;28.07;;;11.87;;
29500;SDS011;16450;50.288;10.966;2022-12-18T02:06:42;25.63;;;12.67;;
29500;SDS011;16450;50.288;10.966;2022-12-18T02:09:48;27.33;;;12.43;;
29500;SDS011;16450;50.288;10.966;2022-12-18T02:16:23;33.03;;;12.97;;
29500;SDS011;16450;50.288;10.966;2022-12-18T02:20:13;26.60;;;12.97;;
29500;SDS011;16450;50.288;10.966;2022-12-18T02:23:32;22.57;;;11.10;;
29500;SDS011;16450;50.288;10.966;2022-12-18T02:26:50;23.20;;;11.47;;
29500;SDS011;16450;50.288;10.966;2022-12-18T02:29:57;24.30;;;11.63;;
29500;SDS011;16450;50.288;10.966;2022-12-18T02:33:01;24.33;;;11.93;;
29500;SDS011;16450;50.288;10.966;2022-12-18T02:36:05;21.23;;;10.30;;
29500;SDS011;16450;50.288;10.966;2022-12-18T02:39:09;29.60;;;11.60;;
29500;SDS011;16450;50.288;10.966;2022-12-18T02:42:12;23.83;;;10.73;;
29500;SDS011;16450;50.288;10.966;2022-12-18T02:45:13;23.63;;;10.80;;
29500;SDS011;16450;50.288;10.966;2022-12-18T02:48:14;21.13;;;11.10;;
29500;SDS011;16450;50.288;10.966;2022-12-18T02:51:18;20.00;;;9.77;;
29500;SDS011;16450;50.288;10.966;2022-12-18T02:57:46;20.50;;;9.70;;
29500;SDS011;16450;50.288;10.966;2022-12-18T03:01:09;17.80;;;8.97;;
29500;SDS011;16450;50.288;10.966;2022-12-18T03:07:47;19.00;;;9.50;;
29500;SDS011;16450;50.288;10.966;2022-12-18T03:11:08;20.03;;;9.30;;
29500;SDS011;16450;50.288;10.966;2022-12-18T03:14:10;16.43;;;9.30;;
29500;SDS011;16450;50.288;10.966;2022-12-18T03:17:14;21.17;;;9.40;;
29500;SDS011;16450;50.288;10.966;2022-12-18T03:20:18;18.60;;;9.27;;
29500;SDS011;16450;50.288;10.966;2022-12-18T03:23:22;17.07;;;9.27;;
29500;SDS011;16450;50.288;10.966;2022-12-18T03:26:27;18.80;;;8.53;;
29500;SDS011;16450;50.288;10.966;2022-12-18T03:29:33;20.57;;;9.00;;
29500;SDS011;16450;50.288;10.966;2022-12-18T03:32:48;17.00;;;8.93;;
29500;SDS011;16450;50.288;10.966;2022-12-18T03:36:00;18.00;;;8.60;;
29500;SDS011;16450;50.288;10.966;2022-12-18T03:39:01;19.03;;;9.33;;
29500;SDS011;16450;50.288;10.966;2022-12-18T03:42:23;16.30;;;8.57;;
29500;SDS011;16450;50.288;10.966;2022-12-18T03:45:34;17.57;;;8.60;;
29500;SDS011;16450;50.288;10.966;2022-12-18T03:48:38;19.77;;;9.93;;
29500;SDS011;16450;50.288;10.966;2022-12-18T03:51:48;17.73;;;8.20;;
29500;SDS011;16450;50.288;10.966;2022-12-18T03:54:54;17.67;;;8.57;;
29500;SDS011;16450;50.288;10.966;2022-12-18T03:57:57;21.30;;;8.70;;
29500;SDS011;16450;50.288;10.966;2022-12-18T04:01:01;16.90;;;8.63;;
29500;SDS011;16450;50.288;10.966;2022-12-18T04:04:05;19.90;;;8.30;;
29500;SDS011;16450;50.288;10.966;2022-12-18T04:07:08;16.73;;;8.53;;
29500;SDS011;16450;50.288;10.966;2022-12-18T04:10:10;19.03;;;8.80;;
29500;SDS011;16450;50.288;10.966;2022-12-18T04:13:13;20.87;;;9.53;;
29500;SDS011;16450;50.288;10.966;2022-12-18T04:16:28;18.23;;;8.80;;
29500;SDS011;16450;50.288;10.966;2022-12-18T04:19:29;20.67;;;9.63;;
29500;SDS011;16450;50.288;10.966;2022-12-18T04:22:29;21.30;;;9.17;;
29500;SDS011;16450;50.288;10.966;2022-12-18T04:25:30;19.47;;;9.10;;
29500;SDS011;16450;50.288;10.966;2022-12-18T04:28:31;17.53;;;8.93;;
29500;SDS011;16450;50.288;10.966;2022-12-18T04:31:31;16.90;;;8.33;;
29500;SDS011;16450;50.288;10.966;2022-12-18T04:34:32;18.33;;;7.93;;
29500;SDS011;16450;50.288;10.966;2022-12-18T04:37:32;18.67;;;9.13;;
29500;SDS011;16450;50.288;10.966;2022-12-18T04:40:33;20.93;;;8.77;;
29500;SDS011;16450;50.288;10.966;2022-12-18T04:43:34;16.93;;;8.23;;
29500;SDS011;16450;50.288;10.966;2022-12-18T04:46:35;19.73;;;8.23;;
29500;SDS011;16450;50.288;10.966;2022-12-18T04:49:35;17.30;;;8.70;;
29500;SDS011;16450;50.288;10.966;2022-12-18T04:52:36;20.70;;;8.30;;
29500;SDS011;16450;50.288;10.966;2022-12-18T04:55:36;15.93;;;8.60;;
29500;SDS011;16450;50.288;10.966;2022-12-18T04:58:37;19.90;;;8.37;;
29500;SDS011;16450;50.288;10.966;2022-12-18T05:01:39;19.07;;;9.17;;
29500;SDS011;16450;50.288;10.966;2022-12-18T05:04:40;16.10;;;8.17;;
29500;SDS011;16450;50.288;10.966;2022-12-18T05:07:40;17.37;;;8.70;;
29500;SDS011;16450;50.288;10.966;2022-12-18T05:10:41;16.83;;;8.23;;
29500;SDS011;16450;50.288;10.966;2022-12-18T05:13:45;20.67;;;9.27;;
29500;SDS011;16450;50.288;10.966;2022-12-18T05:16:45;15.90;;;7.93;;
29500;SDS011;16450;50.288;10.966;2022-12-18T05:19:46;18.57;;;8.03;;
29500;SDS011;16450;50.288;10.966;2022-12-18T05:22:47;18.20;;;8.17;;
29500;SDS011;16450;50.288;10.966;2022-12-18T05:25:51;18.63;;;9.10;;
29500;SDS011;16450;50.288;10.966;2022-12-18T05:28:52;20.37;;;8.57;;
29500;SDS011;16450;50.288;10.966;2022-12-18T05:31:53;14.87;;;7.87;;
29500;SDS011;16450;50.288;10.966;2022-12-18T05:34:53;21.13;;;9.17;;
29500;SDS011;16450;50.288;10.966;2022-12-18T05:37:54;16.17;;;8.70;;
29500;SDS011;16450;50.288;10.966;2022-12-18T05:40:54;19.30;;;9.27;;
29500;SDS011;16450;50.288;10.966;2022-12-18T05:43:56;16.77;;;8.93;;
29500;SDS011;16450;50.288;10.966;2022-12-18T05:46:56;15.93;;;7.90;;
29500;SDS011;16450;50.288;10.966;2022-12-18T05:49:57;16.37;;;8.10;;
29500;SDS011;16450;50.288;10.966;2022-12-18T05:52:58;15.63;;;7.67;;
29500;SDS011;16450;50.288;10.966;2022-12-18T05:56:02;16.50;;;7.80;;
29500;SDS011;16450;50.288;10.966;2022-12-18T05:59:04;13.27;;;7.27;;
29500;SDS011;16450;50.288;10.966;2022-12-18T06:02:05;20.60;;;8.53;;
29500;SDS011;16450;50.288;10.966;2022-12-18T06:05:05;16.10;;;8.10;;
29500;SDS011;16450;50.288;10.966;2022-12-18T06:08:06;17.73;;;8.30;;
29500;SDS011;16450;50.288;10.966;2022-12-18T06:11:07;16.17;;;8.27;;
29500;SDS011;16450;50.288;10.966;2022-12-18T06:14:08;14.23;;;7.77;;
29500;SDS011;16450;50.288;10.966;2022-12-18T06:17:09;14.57;;;7.00;;
29500;SDS011;16450;50.288;10.966;2022-12-18T06:20:10;17.17;;;7.23;;
29500;SDS011;16450;50.288;10.966;2022-12-18T06:23:10;14.00;;;7.63;;
29500;SDS011;16450;50.288;10.966;2022-12-18T06:26:11;11.33;;;6.40;;
29500;SDS011;16450;50.288;10.966;2022-12-18T06:29:13;15.70;;;6.80;;
29500;SDS011;16450;50.288;10.966;2022-12-18T06:32:14;14.20;;;6.73;;
29500;SDS011;16450;50.288;10.966;2022-12-18T06:35:14;14.33;;;7.17;;
29500;SDS011;16450;50.288;10.966;2022-12-18T06:38:15;14.10;;;7.00;;
29500;SDS011;16450;50.288;10.966;2022-12-18T06:41:16;13.87;;;7.17;;
29500;SDS011;16450;50.288;10.966;2022-12-18T06:44:18;11.33;;;5.87;;
29500;SDS011;16450;50.288;10.966;2022-12-18T06:47:19;13.67;;;6.07;;
29500;SDS011;16450;50.288;10.966;2022-12-18T06:50:20;13.53;;;6.77;;
29500;SDS011;16450;50.288;10.966;2022-12-18T06:53:20;13.50;;;6.87;;
29500;SDS011;16450;50.288;10.966;2022-12-18T06:56:21;12.43;;;6.40;;
29500;SDS011;16450;50.288;10.966;2022-12-18T06:59:22;12.40;;;6.63;;
29500;SDS011;16450;50.288;10.966;2022-12-18T07:02:22;12.33;;;6.37;;
29500;SDS011;16450;50.288;10.966;2022-12-18T07:05:23;20.20;;;9.30;;
29500;SDS011;16450;50.288;10.966;2022-12-18T07:08:24;23.17;;;9.97;;
29500;SDS011;16450;50.288;10.966;2022-12-18T07:11:25;24.57;;;9.87;;
29500;SDS011;16450;50.288;10.966;2022-12-18T07:14:25;19.37;;;8.53;;
29500;SDS011;16450;50.288;10.966;2022-12-18T07:17:26;20.20;;;8.13;;
29500;SDS011;16450;50.288;10.966;2022-12-18T07:20:26;16.47;;;7.43;;
29500;SDS011;16450;50.288;10.966;2022-12-18T07:23:27;14.80;;;7.07;;
29500;SDS011;16450;50.288;10.966;2022-12-18T07:26:28;14.97;;;6.27;;
29500;SDS011;16450;50.288;10.966;2022-12-18T07:29:28;14.67;;;6.07;;
29500;SDS011;16450;50.288;10.966;2022-12-18T07:32:29;12.80;;;6.33;;
29500;SDS011;16450;50.288;10.966;2022-12-18T07:35:30;13.10;;;6.73;;
29500;SDS011;16450;50.288;10.966;2022-12-18T07:38:32;15.90;;;7.83;;
29500;SDS011;16450;50.288;10.966;2022-12-18T07:41:34;18.60;;;8.00;;
29500;SDS011;16450;50.288;10.966;2022-12-18T07:44:36;17.77;;;8.53;;
29500;SDS011;16450;50.288;10.966;2022-12-18T07:47:37;14.20;;;7.10;;
29500;SDS011;16450;50.288;10.966;2022-12-18T07:50:38;16.83;;;7.83;;
29500;SDS011;16450;50.288;10.966;2022-12-18T07:53:38;17.63;;;8.50;;
29500;SDS011;16450;50.288;10.966;2022-12-18T07:56:40;20.37;;;7.73;;
29500;SDS011;16450;50.288;10.966;2022-12-18T07:59:40;15.90;;;8.17;;
29500;SDS011;16450;50.288;10.966;2022-12-18T08:02:41;19.93;;;9.67;;
29500;SDS011;16450;50.288;10.966;2022-12-18T08:05:41;19.50;;;8.13;;
29500;SDS011;16450;50.288;10.966;2022-12-18T08:08:42;15.87;;;7.60;;
29500;SDS011;16450;50.288;10.966;2022-12-18T08:11:43;21.30;;;9.60;;
29500;SDS011;16450;50.288;10.966;2022-12-18T08:14:43;18.83;;;8.57;;
29500;SDS011;16450;50.288;10.966;2022-12-18T08:17:44;17.47;;;7.73;;
29500;SDS011;16450;50.288;10.966;2022-12-18T08:20:44;18.90;;;8.30;;
29500;SDS011;16450;50.288;10.966;2022-12-18T08:23:45;16.57;;;8.70;;
29500;SDS011;16450;50.288;10.966;2022-12-18T08:26:46;17.07;;;8.00;;
29500;SDS011;16450;50.288;10.966;2022-12-18T08:29:46;22.33;;;10.03;;
29500;SDS011;16450;50.288;10.966;2022-12-18T08:32:47;18.27;;;8.70;;
29500;SDS011;16450;50.288;10.966;2022-12-18T08:35:53;18.13;;;8.30;;
29500;SDS011;16450;50.288;10.966;2022-12-18T08:38:53;21.23;;;8.83;;
29500;SDS011;16450;50.288;10.966;2022-12-18T08:41:54;20.57;;;8.50;;
29500;SDS011;16450;50.288;10.966;2022-12-18T08:45:13;19.20;;;9.50;;
29500;SDS011;16450;50.288;10.966;2022-12-18T08:48:14;18.60;;;9.23;;
29500;SDS011;16450;50.288;10.966;2022-12-18T08:51:15;19.33;;;8.73;;
29500;SDS011;16450;50.288;10.966;2022-12-18T08:54:17;20.17;;;9.33;;
29500;SDS011;16450;50.288;10.966;2022-12-18T08:57:17;21.37;;;9.17;;
29500;SDS011;16450;50.288;10.966;2022-12-18T09:00:18;18.53;;;9.23;;
29500;SDS011;16450;50.288;10.966;2022-12-18T09:03:19;19.10;;;9.37;;
29500;SDS011;16450;50.288;10.966;2022-12-18T09:06:20;36.20;;;18.47;;
29500;SDS011;16450;50.288;10.966;2022-12-18T09:09:21;22.03;;;10.17;;
29500;SDS011;16450;50.288;10.966;2022-12-18T09:12:22;21.43;;;9.67;;
29500;SDS011;16450;50.288;10.966;2022-12-18T09:15:22;22.37;;;9.63;;
29500;SDS011;16450;50.288;10.966;2022-12-18T09:18:23;19.47;;;10.00;;
29500;SDS011;16450;50.288;10.966;2022-12-18T09:21:25;20.03;;;9.60;;
29500;SDS011;16450;50.288;10.966;2022-12-18T09:24:28;16.70;;;9.20;;
29500;SDS011;16450;50.288;10.966;2022-12-18T09:27:28;16.73;;;9.03;;
29500;SDS011;16450;50.288;10.966;2022-12-18T09:30:29;18.73;;;9.60;;
29500;SDS011;16450;50.288;10.966;2022-12-18T09:33:29;19.70;;;9.37;;
29500;SDS011;16450;50.288;10.966;2022-12-18T09:36:30;19.87;;;9.90;;
29500;SDS011;16450;50.288;10.966;2022-12-18T09:39:30;18.83;;;9.83;;
29500;SDS011;16450;50.288;10.966;2022-12-18T09:42:31;17.23;;;9.30;;
29500;SDS011;16450;50.288;10.966;2022-12-18T09:45:42;21.03;;;10.33;;
29500;SDS011;16450;50.288;10.966;2022-12-18T09:48:47;21.13;;;10.50;;
29500;SDS011;16450;50.288;10.966;2022-12-18T09:51:51;21.67;;;10.23;;
29500;SDS011;16450;50.288;10.966;2022-12-18T09:55:13;23.73;;;10.77;;
29500;SDS011;16450;50.288;10.966;2022-12-18T09:58:57;18.80;;;9.73;;
29500;SDS011;16450;50.288;10.966;2022-12-18T10:01:55;19.40;;;10.30;;
29500;SDS011;16450;50.288;10.966;2022-12-18T10:05:00;19.13;;;9.93;;
29500;SDS011;16450;50.288;10.966;2022-12-18T10:08:05;22.50;;;11.90;;
29500;SDS011;16450;50.288;10.966;2022-12-18T10:11:27;23.53;;;12.17;;
29500;SDS011;16450;50.288;10.966;2022-12-18T10:17:58;21.90;;;11.43;;
29500;SDS011;16450;50.288;10.966;2022-12-18T10:21:03;19.97;;;10.53;;
29500;SDS011;16450;50.288;10.966;2022-12-18T10:24:18;22.80;;;11.50;;
29500;SDS011;16450;50.288;10.966;2022-12-18T10:27:31;22.73;;;11.33;;
29500;SDS011;16450;50.288;10.966;2022-12-18T10:30:31;24.17;;;11.40;;
29500;SDS011;16450;50.288;10.966;2022-12-18T10:33:32;21.77;;;11.30;;
29500;SDS011;16450;50.288;10.966;2022-12-18T10:36:33;21.53;;;11.23;;
29500;SDS011;16450;50.288;10.966;2022-12-18T10:39:34;18.67;;;10.83;;
29500;SDS011;16450;50.288;10.966;2022-12-18T10:42:35;22.93;;;10.67;;
29500;SDS011;16450;50.288;10.966;2022-12-18T10:45:36;21.30;;;10.80;;
29500;SDS011;16450;50.288;10.966;2022-12-18T10:48:55;19.37;;;10.53;;
29500;SDS011;16450;50.288;10.966;2022-12-18T10:52:07;22.23;;;11.03;;
29500;SDS011;16450;50.288;10.966;2022-12-18T10:55:16;19.90;;;10.27;;
29500;SDS011;16450;50.288;10.966;2022-12-18T11:04:55;19.73;;;10.10;;
29500;SDS011;16450;50.288;10.966;2022-12-18T11:07:56;21.17;;;10.17;;
29500;SDS011;16450;50.288;10.966;2022-12-18T11:10:57;18.40;;;9.80;;
29500;SDS011;16450;50.288;10.966;2022-12-18T11:14:45;22.43;;;10.87;;
29500;SDS011;16450;50.288;10.966;2022-12-18T11:23:32;21.83;;;9.90;;
29500;SDS011;16450;50.288;10.966;2022-12-18T11:26:34;20.93;;;10.17;;
29500;SDS011;16450;50.288;10.966;2022-12-18T11:29:37;19.00;;;10.17;;
29500;SDS011;16450;50.288;10.966;2022-12-18T11:32:39;20.60;;;9.73;;
29500;SDS011;16450;50.288;10.966;2022-12-18T11:35:50;24.03;;;9.87;;
29500;SDS011;16450;50.288;10.966;2022-12-18T11:39:20;21.90;;;10.13;;
29500;SDS011;16450;50.288;10.966;2022-12-18T11:42:35;19.07;;;9.57;;
29500;SDS011;16450;50.288;10.966;2022-12-18T11:45:55;20.03;;;9.80;;
29500;SDS011;16450;50.288;10.966;2022-12-18T11:49:20;17.83;;;9.03;;
29500;SDS011;16450;50.288;10.966;2022-12-18T11:52:36;17.93;;;9.60;;
29500;SDS011;16450;50.288;10.966;2022-12-18T12:03:27;19.73;;;9.23;;
29500;SDS011;16450;50.288;10.966;2022-12-18T12:09:28;17.77;;;9.37;;
29500;SDS011;16450;50.288;10.966;2022-12-18T12:13:02;17.17;;;9.33;;
29500;SDS011;16450;50.288;10.966;2022-12-18T12:26:06;21.37;;;10.10;;
29500;SDS011;16450;50.288;10.966;2022-12-18T12:32:25;16.07;;;9.03;;
29500;SDS011;16450;50.288;10.966;2022-12-18T12:38:41;21.13;;;10.00;;
29500;SDS011;16450;50.288;10.966;2022-12-18T12:41:43;18.77;;;9.30;;
29500;SDS011;16450;50.288;10.966;2022-12-18T12:45:05;18.50;;;9.50;;
29500;SDS011;16450;50.288;10.966;2022-12-18T12:48:20;19.90;;;10.40;;
29500;SDS011;16450;50.288;10.966;2022-12-18T12:51:34;18.47;;;9.20;;
29500;SDS011;16450;50.288;10.966;2022-12-18T12:54:37;20.10;;;9.40;;
29500;SDS011;16450;50.288;10.966;2022-12-18T12:57:42;17.33;;;9.50;;
29500;SDS011;16450;50.288;10.966;2022-12-18T13:01:08;18.57;;;9.20;;
29500;SDS011;16450;50.288;10.966;2022-12-18T13:07:51;18.73;;;9.40;;
29500;SDS011;16450;50.288;10.966;2022-12-18T13:10:56;19.37;;;9.67;;
29500;SDS011;16450;50.288;10.966;2022-12-18T13:14:21;19.27;;;9.60;;
29500;SDS011;16450;50.288;10.966;2022-12-18T13:17:28;16.77;;;9.33;;
29500;SDS011;16450;50.288;10.966;2022-12-18T13:21:18;20.17;;;9.93;;
29500;SDS011;16450;50.288;10.966;2022-12-18T13:23:55;23.43;;;9.97;;
29500;SDS011;16450;50.288;10.966;2022-12-18T13:26:57;17.03;;;9.17;;
29500;SDS011;16450;50.288;10.966;2022-12-18T13:29:57;18.73;;;8.63;;
29500;SDS011;16450;50.288;10.966;2022-12-18T13:36:31;20.63;;;8.37;;
29500;SDS011;16450;50.288;10.966;2022-12-18T13:39:33;21.33;;;8.90;;
29500;SDS011;16450;50.288;10.966;2022-12-18T13:42:37;17.53;;;8.63;;
29500;SDS011;16450;50.288;10.966;2022-12-18T13:52:17;17.23;;;8.73;;
29500;SDS011;16450;50.288;10.966;2022-12-18T13:55:20;19.57;;;9.00;;
29500;SDS011;16450;50.288;10.966;2022-12-18T13:58:22;19.63;;;10.17;;
29500;SDS011;16450;50.288;10.966;2022-12-18T14:01:23;16.20;;;9.20;;
29500;SDS011;16450;50.288;10.966;2022-12-18T14:04:26;17.23;;;9.57;;
29500;SDS011;16450;50.288;10.966;2022-12-18T14:07:28;19.23;;;9.33;;
29500;SDS011;16450;50.288;10.966;2022-12-18T14:10:30;17.60;;;9.33;;
29500;SDS011;16450;50.288;10.966;2022-12-18T14:13:32;18.47;;;9.53;;
29500;SDS011;16450;50.288;10.966;2022-12-18T14:16:36;18.17;;;8.90;;
29500;SDS011;16450;50.288;10.966;2022-12-18T14:19:40;18.87;;;9.10;;
29500;SDS011;16450;50.288;10.966;2022-12-18T14:22:43;17.57;;;8.60;;
29500;SDS011;16450;50.288;10.966;2022-12-18T14:25:46;18.77;;;8.83;;
29500;SDS011;16450;50.288;10.966;2022-12-18T14:28:47;17.80;;;8.87;;
29500;SDS011;16450;50.288;10.966;2022-12-18T14:35:24;16.33;;;8.67;;
29500;SDS011;16450;50.288;10.966;2022-12-18T14:41:35;20.43;;;9.80;;
29500;SDS011;16450;50.288;10.966;2022-12-18T14:44:36;13.97;;;8.60;;
29500;SDS011;16450;50.288;10.966;2022-12-18T14:47:37;18.93;;;9.53;;
29500;SDS011;16450;50.288;10.966;2022-12-18T14:50:37;22.23;;;9.60;;
29500;SDS011;16450;50.288;10.966;2022-12-18T14:53:45;20.10;;;9.50;;
29500;SDS011;16450;50.288;10.966;2022-12-18T14:56:48;17.27;;;9.27;;
29500;SDS011;16450;50.288;10.966;2022-12-18T15:00:16;16.60;;;8.40;;
29500;SDS011;16450;50.288;10.966;2022-12-18T15:03:19;20.73;;;9.27;;
29500;SDS011;16450;50.288;10.966;2022-12-18T15:06:31;16.30;;;8.50;;
29500;SDS011;16450;50.288;10.966;2022-12-18T15:09:36;20.63;;;8.63;;
29500;SDS011;16450;50.288;10.966;2022-12-18T15:12:42;19.00;;;8.97;;
29500;SDS011;16450;50.288;10.966;2022-12-18T15:15:45;19.47;;;9.63;;
29500;SDS011;16450;50.288;10.966;2022-12-18T15:18:46;20.60;;;9.30;;
29500;SDS011;16450;50.288;10.966;2022-12-18T15:21:48;19.37;;;9.57;;
29500;SDS011;16450;50.288;10.966;2022-12-18T15:24:49;16.47;;;8.93;;
29500;SDS011;16450;50.288;10.966;2022-12-18T15:27:50;18.53;;;9.93;;
29500;SDS011;16450;50.288;10.966;2022-12-18T15:30:58;16.93;;;9.03;;
29500;SDS011;16450;50.288;10.966;2022-12-18T15:34:13;18.03;;;9.20;;
29500;SDS011;16450;50.288;10.966;2022-12-18T15:37:20;19.27;;;10.07;;
29500;SDS011;16450;50.288;10.966;2022-12-18T15:40:21;18.43;;;8.77;;
29500;SDS011;16450;50.288;10.966;2022-12-18T15:43:24;19.37;;;9.17;;
29500;SDS011;16450;50.288;10.966;2022-12-18T15:46:34;18.50;;;8.50;;
29500;SDS011;16450;50.288;10.966;2022-12-18T15:49:35;16.67;;;8.20;;
29500;SDS011;16450;50.288;10.966;2022-12-18T15:52:39;16.60;;;8.73;;
29500;SDS011;16450;50.288;10.966;2022-12-18T15:55:44;15.77;;;7.70;;
29500;SDS011;16450;50.288;10.966;2022-12-18T15:59:10;20.00;;;12.47;;
29500;SDS011;16450;50.288;10.966;2022-12-18T16:02:14;15.33;;;8.13;;
29500;SDS011;16450;50.288;10.966;2022-12-18T16:05:18;16.03;;;8.13;;
29500;SDS011;16450;50.288;10.966;2022-12-18T16:08:20;17.77;;;8.20;;
29500;SDS011;16450;50.288;10.966;2022-12-18T16:11:24;14.60;;;7.07;;
29500;SDS011;16450;50.288;10.966;2022-12-18T16:14:40;16.20;;;7.60;;
29500;SDS011;16450;50.288;10.966;2022-12-18T16:17:40;14.87;;;7.73;;
29500;SDS011;16450;50.288;10.966;2022-12-18T16:20:42;15.83;;;7.50;;
29500;SDS011;16450;50.288;10.966;2022-12-18T16:23:42;15.07;;;8.13;;
29500;SDS011;16450;50.288;10.966;2022-12-18T16:26:43;16.50;;;8.30;;
29500;SDS011;16450;50.288;10.966;2022-12-18T16:29:44;16.43;;;8.07;;
29500;SDS011;16450;50.288;10.966;2022-12-18T16:32:45;14.00;;;7.83;;
29500;SDS011;16450;50.288;10.966;2022-12-18T16:35:50;16.00;;;7.57;;
29500;SDS011;16450;50.288;10.966;2022-12-18T16:38:51;15.97;;;8.37;;
29500;SDS011;16450;50.288;10.966;2022-12-18T16:41:52;16.37;;;8.70;;
29500;SDS011;16450;50.288;10.966;2022-12-18T16:44:53;16.60;;;9.03;;
29500;SDS011;16450;50.288;10.966;2022-12-18T16:47:54;19.57;;;9.37;;
29500;SDS011;16450;50.288;10.966;2022-12-18T16:51:01;21.50;;;15.40;;
29500;SDS011;16450;50.288;10.966;2022-12-18T16:54:03;20.00;;;11.40;;
29500;SDS011;16450;50.288;10.966;2022-12-18T16:57:04;20.73;;;10.10;;
29500;SDS011;16450;50.288;10.966;2022-12-18T17:00:05;19.00;;;9.97;;
29500;SDS011;16450;50.288;10.966;2022-12-18T17:03:06;18.53;;;9.40;;
29500;SDS011;16450;50.288;10.966;2022-12-18T17:06:07;17.93;;;10.17;;
29500;SDS011;16450;50.288;10.966;2022-12-18T17:09:10;18.37;;;8.53;;
29500;SDS011;16450;50.288;10.966;2022-12-18T17:12:14;20.10;;;9.40;;
29500;SDS011;16450;50.288;10.966;2022-12-18T17:15:14;15.47;;;8.40;;
29500;SDS011;16450;50.288;10.966;2022-12-18T17:18:15;18.10;;;8.23;;
29500;SDS011;16450;50.288;10.966;2022-12-18T17:21:15;18.53;;;9.17;;
29500;SDS011;16450;50.288;10.966;2022-12-18T17:24:16;17.50;;;9.20;;
29500;SDS011;16450;50.288;10.966;2022-12-18T17:27:18;18.07;;;9.50;;
29500;SDS011;16450;50.288;10.966;2022-12-18T17:30:19;20.10;;;8.80;;
29500;SDS011;16450;50.288;10.966;2022-12-18T17:33:20;17.57;;;8.83;;
29500;SDS011;16450;50.288;10.966;2022-12-18T17:36:21;19.47;;;10.60;;
29500;SDS011;16450;50.288;10.966;2022-12-18T17:39:23;17.43;;;8.90;;
29500;SDS011;16450;50.288;10.966;2022-12-18T17:42:23;18.87;;;9.47;;
29500;SDS011;16450;50.288;10.966;2022-12-18T17:45:25;17.30;;;9.77;;
29500;SDS011;16450;50.288;10.966;2022-12-18T17:48:26;21.10;;;10.57;;
29500;SDS011;16450;50.288;10.966;2022-12-18T17:51:27;18.60;;;9.23;;
29500;SDS011;16450;50.288;10.966;2022-12-18T17:54:28;23.43;;;10.97;;
29500;SDS011;16450;50.288;10.966;2022-12-18T17:57:28;18.17;;;10.70;;
29500;SDS011;16450;50.288;10.966;2022-12-18T18:00:29;21.43;;;11.40;;
29500;SDS011;16450;50.288;10.966;2022-12-18T18:03:30;19.03;;;10.60;;
29500;SDS011;16450;50.288;10.966;2022-12-18T18:06:32;22.57;;;12.53;;
29500;SDS011;16450;50.288;10.966;2022-12-18T18:09:32;25.20;;;12.03;;
29500;SDS011;16450;50.288;10.966;2022-12-18T18:12:33;23.03;;;11.37;;
29500;SDS011;16450;50.288;10.966;2022-12-18T18:15:57;21.57;;;10.93;;
29500;SDS011;16450;50.288;10.966;2022-12-18T18:18:58;23.60;;;10.97;;
29500;SDS011;16450;50.288;10.966;2022-12-18T18:21:59;20.07;;;10.63;;
29500;SDS011;16450;50.288;10.966;2022-12-18T18:25:00;19.20;;;10.17;;
29500;SDS011;16450;50.288;10.966;2022-12-18T18:28:02;25.50;;;12.53;;
29500;SDS011;16450;50.288;10.966;2022-12-18T18:31:09;21.70;;;12.00;;
29500;SDS011;16450;50.288;10.966;2022-12-18T18:34:15;19.90;;;10.63;;
29500;SDS011;16450;50.288;10.966;2022-12-18T18:37:17;24.20;;;11.80;;
29500;SDS011;16450;50.288;10.966;2022-12-18T18:40:17;24.50;;;12.27;;
29500;SDS011;16450;50.288;10.966;2022-12-18T18:43:20;24.43;;;14.13;;
29500;SDS011;16450;50.288;10.966;2022-12-18T18:46:21;27.23;;;15.13;;
29500;SDS011;16450;50.288;10.966;2022-12-18T18:49:22;27.27;;;13.53;;
29500;SDS011;16450;50.288;10.966;2022-12-18T18:52:26;26.57;;;13.50;;
29500;SDS011;16450;50.288;10.966;2022-12-18T18:55:26;31.30;;;16.20;;
29500;SDS011;16450;50.288;10.966;2022-12-18T18:58:27;29.07;;;13.83;;
29500;SDS011;16450;50.288;10.966;2022-12-18T19:01:28;23.37;;;12.10;;
29500;SDS011;16450;50.288;10.966;2022-12-18T19:04:29;24.03;;;12.00;;